This is the latest recevied weather packets stored in our database for station/object WD9GET. If no packets are shown the sender has not sent any weather packets the latest 10 day(s).
| Time | Temp. | Humidity | Pressure | Rain* | Wind** | Luminosity | Snow |
|---|---|---|---|---|---|---|---|
| 1778339804 | 25° C | 97% | 1009.6 hPa | 0 mm | - | 262 W/m² | - |
| 1778339740 | 25° C | 97% | 1009.6 hPa | 0 mm | - | 262 W/m² | - |
| 1778339680 | 25° C | 98% | 1009.5 hPa | 0 mm | - | 260 W/m² | - |
| 1778339620 | 25° C | 98% | 1009.5 hPa | 0 mm | - | 260 W/m² | - |
| 1778339561 | 25° C | 98% | 1009.6 hPa | 0 mm | - | 256 W/m² | - |
| 1778339504 | 24.44° C | 98% | 1009.6 hPa | 0 mm | - | 251 W/m² | - |
| 1778339425 | 24.44° C | 98% | 1009.8 hPa | 0 mm | - | 235 W/m² | - |
| 1778339365 | 24.44° C | 98% | 1009.8 hPa | 0 mm | - | 235 W/m² | - |
| 1778339305 | 24.44° C | 98% | 1009.9 hPa | 0 mm | - | 225 W/m² | - |
| 1778339249 | 24.44° C | 99% | 1010.1 hPa | 0 mm | - | 200 W/m² | - |
| 1778339189 | 24.44° C | 99% | 1010.2 hPa | 0 mm | - | 182 W/m² | - |
| 1778339096 | 24.44° C | 99% | 1010.2 hPa | 0 mm | - | 156 W/m² | - |
| 1778339036 | 24.44° C | 99% | 1010.3 hPa | 0 mm | - | 131 W/m² | - |
| 1778338977 | 24.44° C | 99% | 1010.3 hPa | 0 mm | - | 121 W/m² | - |
| 1778338915 | 24.44° C | 99% | 1010.3 hPa | 0 mm | - | 129 W/m² | - |
| 1778338859 | 24.44° C | 99% | 1010.2 hPa | 0 mm | - | 148 W/m² | - |
| 1778338795 | 24.44° C | 99% | 1009.8 hPa | 0 mm | - | 160 W/m² | - |
| 1778338735 | 24.44° C | 99% | 1009.8 hPa | 0 mm | - | 160 W/m² | - |
| 1778338675 | 24.44° C | 99% | 1009.7 hPa | 0 mm | - | 154 W/m² | - |
| 1778338615 | 24.44° C | 99% | 1009.5 hPa | 0 mm | - | 144 W/m² | - |
| 1778338560 | 24.44° C | 99% | 1009.5 hPa | 0 mm | - | 132 W/m² | - |
| 1778338495 | 24.44° C | 99% | 1009.5 hPa | 0 mm | - | 117 W/m² | - |
| 1778338435 | 24.44° C | 99% | 1009.5 hPa | 0 mm | - | 104 W/m² | - |
| 1778338375 | 24.44° C | 99% | 1009.6 hPa | 0 mm | - | 82 W/m² | - |
| 1778338315 | 24.44° C | 99% | 1009.6 hPa | 0 mm | - | 82 W/m² | - |
* Rain latest hour (hover to see other rain measurements)
** Current wind speed in m/s (hover to see current wind gust speed)